If you wish to contribute or participate in the discussions about articles you are invited to join SKYbrary as a registered user

 Actions

Kadena Air Base

From SKYbrary Wiki

RODN
Airport
ICAO: RODN – IATA: DNA
Summary
Name Kadena Air Base
Region Asia and Pacific
Territory Japan JP.gif
Location Kadena, Okinawa
Serving Kadena
Elevation 44.501 m
146 ft
146 ft44.501 m
Type large airport
Coordinates 26° 21' 20.20" N, 127° 46' 3.48" E
Runways
Designator Length Width Surface ROPS
05L/23R 3688 m12,099.738 ft
91 m298.556 ft
ASP yes/yes
05R/23L 3688 m12,099.738 ft
61 m200.131 ft
CON yes/yes


METAR
Observation RODN 241456Z AUTO 16010KT 10SM FEW016 29/26 A2988 RMK AO2 SLP123 T02860258 403230285 58001
Station Kadena Ab
Date/Time 24 August 2019 14:56:00
Wind direction 160°
Wind speed 10 kts
Lowest cloud amount few clouds
Temperature 28.6°C
Dew point 25.8°C
Humidity 84%
QNH hPa
Weather condition n/a